sensor_id;sensor_type;location;lat;lon;timestamp;P1;durP1;ratioP1;P2;durP2;ratioP2
22644;SDS011;11489;50.834;6.752;2022-09-24T00:01:26;5.57;;;3.88;;
22644;SDS011;11489;50.834;6.752;2022-09-24T00:03:54;6.28;;;3.97;;
22644;SDS011;11489;50.834;6.752;2022-09-24T00:06:22;6.57;;;4.30;;
22644;SDS011;11489;50.834;6.752;2022-09-24T00:08:49;4.55;;;3.58;;
22644;SDS011;11489;50.834;6.752;2022-09-24T00:11:18;7.15;;;4.30;;
22644;SDS011;11489;50.834;6.752;2022-09-24T00:13:45;5.88;;;3.95;;
22644;SDS011;11489;50.834;6.752;2022-09-24T00:16:12;4.35;;;3.78;;
22644;SDS011;11489;50.834;6.752;2022-09-24T00:18:39;5.50;;;3.78;;
22644;SDS011;11489;50.834;6.752;2022-09-24T00:21:16;6.38;;;3.78;;
22644;SDS011;11489;50.834;6.752;2022-09-24T00:23:44;5.45;;;3.60;;
22644;SDS011;11489;50.834;6.752;2022-09-24T00:26:13;5.57;;;4.10;;
22644;SDS011;11489;50.834;6.752;2022-09-24T00:28:57;6.10;;;4.25;;
22644;SDS011;11489;50.834;6.752;2022-09-24T00:31:24;9.45;;;3.95;;
22644;SDS011;11489;50.834;6.752;2022-09-24T00:33:50;5.95;;;3.95;;
22644;SDS011;11489;50.834;6.752;2022-09-24T00:36:17;5.13;;;3.63;;
22644;SDS011;11489;50.834;6.752;2022-09-24T00:38:44;4.65;;;3.90;;
22644;SDS011;11489;50.834;6.752;2022-09-24T00:41:14;4.80;;;3.45;;
22644;SDS011;11489;50.834;6.752;2022-09-24T00:43:40;5.78;;;4.00;;
22644;SDS011;11489;50.834;6.752;2022-09-24T00:48:54;5.22;;;3.92;;
22644;SDS011;11489;50.834;6.752;2022-09-24T00:51:25;5.85;;;3.90;;
22644;SDS011;11489;50.834;6.752;2022-09-24T00:53:54;5.18;;;3.53;;
22644;SDS011;11489;50.834;6.752;2022-09-24T00:56:24;5.32;;;3.78;;
22644;SDS011;11489;50.834;6.752;2022-09-24T00:58:52;5.68;;;3.72;;
22644;SDS011;11489;50.834;6.752;2022-09-24T01:01:21;7.25;;;4.68;;
22644;SDS011;11489;50.834;6.752;2022-09-24T01:03:48;5.40;;;4.40;;
22644;SDS011;11489;50.834;6.752;2022-09-24T01:06:15;6.47;;;3.97;;
22644;SDS011;11489;50.834;6.752;2022-09-24T01:08:41;6.85;;;4.25;;
22644;SDS011;11489;50.834;6.752;2022-09-24T01:19:34;7.25;;;4.22;;
22644;SDS011;11489;50.834;6.752;2022-09-24T01:30:30;5.78;;;4.07;;
22644;SDS011;11489;50.834;6.752;2022-09-24T01:33:02;5.65;;;4.03;;
22644;SDS011;11489;50.834;6.752;2022-09-24T01:35:38;6.32;;;4.30;;
22644;SDS011;11489;50.834;6.752;2022-09-24T01:38:10;5.95;;;4.22;;
22644;SDS011;11489;50.834;6.752;2022-09-24T01:40:41;6.43;;;4.38;;
22644;SDS011;11489;50.834;6.752;2022-09-24T01:43:09;6.30;;;4.10;;
22644;SDS011;11489;50.834;6.752;2022-09-24T01:45:36;7.45;;;4.30;;
22644;SDS011;11489;50.834;6.752;2022-09-24T01:48:03;5.78;;;4.40;;
22644;SDS011;11489;50.834;6.752;2022-09-24T01:50:32;7.18;;;4.35;;
22644;SDS011;11489;50.834;6.752;2022-09-24T01:53:09;5.88;;;4.30;;
22644;SDS011;11489;50.834;6.752;2022-09-24T01:55:41;6.43;;;4.30;;
22644;SDS011;11489;50.834;6.752;2022-09-24T01:58:15;7.47;;;4.07;;
22644;SDS011;11489;50.834;6.752;2022-09-24T02:00:47;7.43;;;4.60;;
22644;SDS011;11489;50.834;6.752;2022-09-24T02:03:19;5.55;;;4.40;;
22644;SDS011;11489;50.834;6.752;2022-09-24T02:05:53;7.30;;;4.15;;
22644;SDS011;11489;50.834;6.752;2022-09-24T02:08:41;7.50;;;5.10;;
22644;SDS011;11489;50.834;6.752;2022-09-24T02:11:10;8.63;;;4.63;;
22644;SDS011;11489;50.834;6.752;2022-09-24T02:13:59;5.25;;;4.18;;
22644;SDS011;11489;50.834;6.752;2022-09-24T02:16:43;5.05;;;3.92;;
22644;SDS011;11489;50.834;6.752;2022-09-24T02:19:18;6.63;;;4.57;;
22644;SDS011;11489;50.834;6.752;2022-09-24T02:21:48;8.82;;;4.32;;
22644;SDS011;11489;50.834;6.752;2022-09-24T02:24:16;6.32;;;4.47;;
22644;SDS011;11489;50.834;6.752;2022-09-24T02:27:13;7.57;;;4.22;;
22644;SDS011;11489;50.834;6.752;2022-09-24T02:29:39;7.72;;;4.03;;
22644;SDS011;11489;50.834;6.752;2022-09-24T02:32:05;6.07;;;4.22;;
22644;SDS011;11489;50.834;6.752;2022-09-24T02:34:34;5.82;;;4.15;;
22644;SDS011;11489;50.834;6.752;2022-09-24T02:37:05;5.32;;;3.72;;
22644;SDS011;11489;50.834;6.752;2022-09-24T02:39:33;5.57;;;3.95;;
22644;SDS011;11489;50.834;6.752;2022-09-24T02:42:00;7.55;;;4.05;;
22644;SDS011;11489;50.834;6.752;2022-09-24T02:44:29;5.43;;;3.90;;
22644;SDS011;11489;50.834;6.752;2022-09-24T02:46:56;8.52;;;4.03;;
22644;SDS011;11489;50.834;6.752;2022-09-24T02:49:22;4.80;;;3.70;;
22644;SDS011;11489;50.834;6.752;2022-09-24T02:51:47;5.40;;;4.05;;
22644;SDS011;11489;50.834;6.752;2022-09-24T02:54:13;10.38;;;4.70;;
22644;SDS011;11489;50.834;6.752;2022-09-24T02:56:39;6.95;;;4.13;;
22644;SDS011;11489;50.834;6.752;2022-09-24T02:59:05;6.00;;;4.40;;
22644;SDS011;11489;50.834;6.752;2022-09-24T03:01:32;7.05;;;4.20;;
22644;SDS011;11489;50.834;6.752;2022-09-24T03:03:58;6.47;;;4.30;;
22644;SDS011;11489;50.834;6.752;2022-09-24T03:06:24;7.00;;;4.50;;
22644;SDS011;11489;50.834;6.752;2022-09-24T03:08:50;6.45;;;4.22;;
22644;SDS011;11489;50.834;6.752;2022-09-24T03:11:17;7.10;;;4.80;;
22644;SDS011;11489;50.834;6.752;2022-09-24T03:13:46;8.82;;;4.40;;
22644;SDS011;11489;50.834;6.752;2022-09-24T03:16:12;5.90;;;4.55;;
22644;SDS011;11489;50.834;6.752;2022-09-24T03:18:38;5.13;;;4.18;;
22644;SDS011;11489;50.834;6.752;2022-09-24T03:21:05;6.85;;;4.40;;
22644;SDS011;11489;50.834;6.752;2022-09-24T03:23:32;5.40;;;4.35;;
22644;SDS011;11489;50.834;6.752;2022-09-24T03:25:59;6.25;;;4.25;;
22644;SDS011;11489;50.834;6.752;2022-09-24T03:28:25;8.13;;;3.85;;
22644;SDS011;11489;50.834;6.752;2022-09-24T03:30:51;6.20;;;4.40;;
22644;SDS011;11489;50.834;6.752;2022-09-24T03:36:04;7.50;;;4.25;;
22644;SDS011;11489;50.834;6.752;2022-09-24T03:38:32;7.53;;;4.82;;
22644;SDS011;11489;50.834;6.752;2022-09-24T03:40:58;6.13;;;4.45;;
22644;SDS011;11489;50.834;6.752;2022-09-24T03:43:25;7.00;;;4.35;;
22644;SDS011;11489;50.834;6.752;2022-09-24T03:45:51;7.28;;;4.57;;
22644;SDS011;11489;50.834;6.752;2022-09-24T03:48:17;7.13;;;4.88;;
22644;SDS011;11489;50.834;6.752;2022-09-24T03:50:44;5.68;;;3.97;;
22644;SDS011;11489;50.834;6.752;2022-09-24T03:53:10;6.82;;;4.60;;
22644;SDS011;11489;50.834;6.752;2022-09-24T03:58:11;5.65;;;4.20;;
22644;SDS011;11489;50.834;6.752;2022-09-24T04:00:37;7.63;;;4.13;;
22644;SDS011;11489;50.834;6.752;2022-09-24T04:03:03;7.40;;;4.82;;
22644;SDS011;11489;50.834;6.752;2022-09-24T04:05:30;5.72;;;4.35;;
22644;SDS011;11489;50.834;6.752;2022-09-24T04:07:59;5.15;;;4.00;;
22644;SDS011;11489;50.834;6.752;2022-09-24T04:10:26;5.00;;;3.92;;
22644;SDS011;11489;50.834;6.752;2022-09-24T04:12:53;5.78;;;4.00;;
22644;SDS011;11489;50.834;6.752;2022-09-24T04:15:19;5.93;;;4.35;;
22644;SDS011;11489;50.834;6.752;2022-09-24T04:17:52;6.78;;;4.60;;
22644;SDS011;11489;50.834;6.752;2022-09-24T04:20:19;6.40;;;4.25;;
22644;SDS011;11489;50.834;6.752;2022-09-24T04:22:50;7.15;;;4.53;;
22644;SDS011;11489;50.834;6.752;2022-09-24T04:25:16;5.95;;;4.25;;
22644;SDS011;11489;50.834;6.752;2022-09-24T04:27:43;7.25;;;4.32;;
22644;SDS011;11489;50.834;6.752;2022-09-24T04:30:15;6.50;;;4.35;;
22644;SDS011;11489;50.834;6.752;2022-09-24T04:32:41;8.38;;;4.53;;
22644;SDS011;11489;50.834;6.752;2022-09-24T04:35:07;7.50;;;4.50;;
22644;SDS011;11489;50.834;6.752;2022-09-24T04:37:35;6.68;;;4.70;;
22644;SDS011;11489;50.834;6.752;2022-09-24T04:40:02;7.75;;;4.53;;
22644;SDS011;11489;50.834;6.752;2022-09-24T04:42:29;7.32;;;3.83;;
22644;SDS011;11489;50.834;6.752;2022-09-24T04:44:55;5.28;;;4.05;;
22644;SDS011;11489;50.834;6.752;2022-09-24T04:47:21;8.07;;;4.30;;
22644;SDS011;11489;50.834;6.752;2022-09-24T04:49:48;6.82;;;3.97;;
22644;SDS011;11489;50.834;6.752;2022-09-24T04:52:14;8.43;;;4.50;;
22644;SDS011;11489;50.834;6.752;2022-09-24T04:54:40;9.48;;;4.57;;
22644;SDS011;11489;50.834;6.752;2022-09-24T04:57:10;6.13;;;4.13;;
22644;SDS011;11489;50.834;6.752;2022-09-24T04:59:39;6.55;;;4.30;;
22644;SDS011;11489;50.834;6.752;2022-09-24T05:02:05;5.55;;;4.25;;
22644;SDS011;11489;50.834;6.752;2022-09-24T05:04:34;5.80;;;4.13;;
22644;SDS011;11489;50.834;6.752;2022-09-24T05:07:00;5.57;;;4.03;;
22644;SDS011;11489;50.834;6.752;2022-09-24T05:09:26;4.85;;;3.70;;
22644;SDS011;11489;50.834;6.752;2022-09-24T05:11:51;5.78;;;4.03;;
22644;SDS011;11489;50.834;6.752;2022-09-24T05:14:17;6.38;;;3.92;;
22644;SDS011;11489;50.834;6.752;2022-09-24T05:16:43;4.97;;;3.80;;
22644;SDS011;11489;50.834;6.752;2022-09-24T05:19:08;5.10;;;3.95;;
22644;SDS011;11489;50.834;6.752;2022-09-24T05:21:34;6.95;;;4.20;;
22644;SDS011;11489;50.834;6.752;2022-09-24T05:24:00;5.13;;;4.25;;
22644;SDS011;11489;50.834;6.752;2022-09-24T05:26:25;4.53;;;3.53;;
22644;SDS011;11489;50.834;6.752;2022-09-24T05:29:10;5.45;;;3.95;;
22644;SDS011;11489;50.834;6.752;2022-09-24T05:31:35;5.95;;;4.20;;
22644;SDS011;11489;50.834;6.752;2022-09-24T05:34:01;5.35;;;4.00;;
22644;SDS011;11489;50.834;6.752;2022-09-24T05:36:27;9.30;;;4.50;;
22644;SDS011;11489;50.834;6.752;2022-09-24T05:38:53;7.35;;;4.07;;
22644;SDS011;11489;50.834;6.752;2022-09-24T05:41:19;7.60;;;4.28;;
22644;SDS011;11489;50.834;6.752;2022-09-24T05:43:45;7.82;;;4.30;;
22644;SDS011;11489;50.834;6.752;2022-09-24T05:46:11;5.75;;;4.22;;
22644;SDS011;11489;50.834;6.752;2022-09-24T05:48:37;6.03;;;4.50;;
22644;SDS011;11489;50.834;6.752;2022-09-24T05:51:03;6.10;;;4.10;;
22644;SDS011;11489;50.834;6.752;2022-09-24T05:53:29;6.57;;;3.92;;
22644;SDS011;11489;50.834;6.752;2022-09-24T05:55:55;7.78;;;4.30;;
22644;SDS011;11489;50.834;6.752;2022-09-24T05:58:22;5.60;;;3.92;;
22644;SDS011;11489;50.834;6.752;2022-09-24T06:00:49;7.13;;;4.20;;
22644;SDS011;11489;50.834;6.752;2022-09-24T06:03:15;7.07;;;4.00;;
22644;SDS011;11489;50.834;6.752;2022-09-24T06:05:43;5.65;;;3.72;;
22644;SDS011;11489;50.834;6.752;2022-09-24T06:08:10;6.65;;;3.80;;
22644;SDS011;11489;50.834;6.752;2022-09-24T06:10:37;5.35;;;4.10;;
22644;SDS011;11489;50.834;6.752;2022-09-24T06:13:03;6.38;;;3.92;;
22644;SDS011;11489;50.834;6.752;2022-09-24T06:15:29;6.88;;;3.95;;
22644;SDS011;11489;50.834;6.752;2022-09-24T06:17:55;6.18;;;3.60;;
22644;SDS011;11489;50.834;6.752;2022-09-24T06:20:21;4.75;;;3.85;;
22644;SDS011;11489;50.834;6.752;2022-09-24T06:22:47;4.95;;;3.53;;
22644;SDS011;11489;50.834;6.752;2022-09-24T06:25:13;6.78;;;4.05;;
22644;SDS011;11489;50.834;6.752;2022-09-24T06:27:39;7.78;;;3.95;;
22644;SDS011;11489;50.834;6.752;2022-09-24T06:30:04;6.38;;;3.90;;
22644;SDS011;11489;50.834;6.752;2022-09-24T06:32:31;7.57;;;4.03;;
22644;SDS011;11489;50.834;6.752;2022-09-24T06:34:56;6.15;;;4.05;;
22644;SDS011;11489;50.834;6.752;2022-09-24T06:37:22;4.68;;;3.60;;
22644;SDS011;11489;50.834;6.752;2022-09-24T06:39:48;9.25;;;4.30;;
22644;SDS011;11489;50.834;6.752;2022-09-24T06:42:13;5.40;;;3.70;;
22644;SDS011;11489;50.834;6.752;2022-09-24T06:44:39;4.75;;;3.83;;
22644;SDS011;11489;50.834;6.752;2022-09-24T06:47:06;9.23;;;4.22;;
22644;SDS011;11489;50.834;6.752;2022-09-24T06:49:32;6.03;;;4.15;;
22644;SDS011;11489;50.834;6.752;2022-09-24T06:51:57;7.75;;;4.25;;
22644;SDS011;11489;50.834;6.752;2022-09-24T06:54:23;8.75;;;4.50;;
22644;SDS011;11489;50.834;6.752;2022-09-24T06:56:49;9.13;;;4.30;;
22644;SDS011;11489;50.834;6.752;2022-09-24T06:59:17;6.20;;;4.68;;
22644;SDS011;11489;50.834;6.752;2022-09-24T07:01:43;6.90;;;4.18;;
22644;SDS011;11489;50.834;6.752;2022-09-24T07:04:08;5.00;;;4.25;;
22644;SDS011;11489;50.834;6.752;2022-09-24T07:06:35;6.80;;;4.40;;
22644;SDS011;11489;50.834;6.752;2022-09-24T07:09:20;7.10;;;4.40;;
22644;SDS011;11489;50.834;6.752;2022-09-24T07:11:46;6.65;;;4.22;;
22644;SDS011;11489;50.834;6.752;2022-09-24T07:14:12;7.90;;;4.78;;
22644;SDS011;11489;50.834;6.752;2022-09-24T07:16:37;8.68;;;4.68;;
22644;SDS011;11489;50.834;6.752;2022-09-24T07:19:03;7.47;;;4.40;;
22644;SDS011;11489;50.834;6.752;2022-09-24T07:21:29;7.28;;;4.40;;
22644;SDS011;11489;50.834;6.752;2022-09-24T07:23:55;7.38;;;4.38;;
22644;SDS011;11489;50.834;6.752;2022-09-24T07:26:21;8.65;;;4.75;;
22644;SDS011;11489;50.834;6.752;2022-09-24T07:28:47;8.10;;;4.88;;
22644;SDS011;11489;50.834;6.752;2022-09-24T07:31:12;8.13;;;4.38;;
22644;SDS011;11489;50.834;6.752;2022-09-24T07:33:38;6.47;;;4.47;;
22644;SDS011;11489;50.834;6.752;2022-09-24T07:36:04;8.45;;;4.38;;
22644;SDS011;11489;50.834;6.752;2022-09-24T07:38:33;8.50;;;4.25;;
22644;SDS011;11489;50.834;6.752;2022-09-24T07:41:00;10.10;;;4.22;;
22644;SDS011;11489;50.834;6.752;2022-09-24T07:43:28;6.10;;;4.05;;
22644;SDS011;11489;50.834;6.752;2022-09-24T07:45:56;6.60;;;4.45;;
22644;SDS011;11489;50.834;6.752;2022-09-24T07:48:22;7.75;;;4.63;;
22644;SDS011;11489;50.834;6.752;2022-09-24T07:50:48;6.93;;;4.70;;
22644;SDS011;11489;50.834;6.752;2022-09-24T07:53:15;7.38;;;4.57;;
22644;SDS011;11489;50.834;6.752;2022-09-24T07:55:41;6.30;;;4.38;;
22644;SDS011;11489;50.834;6.752;2022-09-24T07:58:07;7.30;;;4.95;;
22644;SDS011;11489;50.834;6.752;2022-09-24T08:00:36;5.95;;;4.78;;
22644;SDS011;11489;50.834;6.752;2022-09-24T08:03:02;7.28;;;5.03;;
22644;SDS011;11489;50.834;6.752;2022-09-24T08:05:29;12.35;;;4.93;;
22644;SDS011;11489;50.834;6.752;2022-09-24T08:07:57;7.38;;;4.72;;
22644;SDS011;11489;50.834;6.752;2022-09-24T08:10:23;5.88;;;4.50;;
22644;SDS011;11489;50.834;6.752;2022-09-24T08:12:51;10.32;;;4.50;;
22644;SDS011;11489;50.834;6.752;2022-09-24T08:15:17;8.93;;;4.32;;
22644;SDS011;11489;50.834;6.752;2022-09-24T08:17:43;8.15;;;4.35;;
22644;SDS011;11489;50.834;6.752;2022-09-24T08:20:09;9.88;;;5.15;;
22644;SDS011;11489;50.834;6.752;2022-09-24T08:22:36;6.55;;;4.50;;
22644;SDS011;11489;50.834;6.752;2022-09-24T08:25:02;9.07;;;4.82;;
22644;SDS011;11489;50.834;6.752;2022-09-24T08:27:29;6.43;;;4.57;;
22644;SDS011;11489;50.834;6.752;2022-09-24T08:29:56;6.95;;;4.68;;
22644;SDS011;11489;50.834;6.752;2022-09-24T08:32:24;8.00;;;4.72;;
22644;SDS011;11489;50.834;6.752;2022-09-24T08:34:50;8.10;;;5.03;;
22644;SDS011;11489;50.834;6.752;2022-09-24T08:37:16;8.02;;;5.45;;
22644;SDS011;11489;50.834;6.752;2022-09-24T08:39:42;6.13;;;4.47;;
22644;SDS011;11489;50.834;6.752;2022-09-24T08:42:12;7.20;;;4.50;;
22644;SDS011;11489;50.834;6.752;2022-09-24T08:44:46;5.22;;;4.18;;
22644;SDS011;11489;50.834;6.752;2022-09-24T08:55:46;8.80;;;4.85;;
22644;SDS011;11489;50.834;6.752;2022-09-24T09:11:39;11.55;;;6.15;;
22644;SDS011;11489;50.834;6.752;2022-09-24T09:19:14;8.65;;;6.70;;
22644;SDS011;11489;50.834;6.752;2022-09-24T09:21:42;12.27;;;6.63;;
22644;SDS011;11489;50.834;6.752;2022-09-24T09:24:17;8.93;;;6.68;;
22644;SDS011;11489;50.834;6.752;2022-09-24T09:26:48;9.23;;;7.13;;
22644;SDS011;11489;50.834;6.752;2022-09-24T09:29:18;11.10;;;7.72;;
22644;SDS011;11489;50.834;6.752;2022-09-24T09:34:47;12.80;;;8.63;;
22644;SDS011;11489;50.834;6.752;2022-09-24T09:40:22;12.50;;;8.95;;
22644;SDS011;11489;50.834;6.752;2022-09-24T09:43:11;12.63;;;8.95;;
22644;SDS011;11489;50.834;6.752;2022-09-24T09:48:30;12.50;;;8.90;;
22644;SDS011;11489;50.834;6.752;2022-09-24T09:51:35;11.07;;;8.50;;
22644;SDS011;11489;50.834;6.752;2022-09-24T09:54:04;10.82;;;7.88;;
22644;SDS011;11489;50.834;6.752;2022-09-24T09:56:32;12.23;;;8.10;;
22644;SDS011;11489;50.834;6.752;2022-09-24T10:01:40;14.88;;;8.23;;
22644;SDS011;11489;50.834;6.752;2022-09-24T10:07:14;11.18;;;8.52;;
22644;SDS011;11489;50.834;6.752;2022-09-24T10:09:41;13.73;;;8.43;;
22644;SDS011;11489;50.834;6.752;2022-09-24T10:12:16;12.93;;;9.13;;
22644;SDS011;11489;50.834;6.752;2022-09-24T10:14:54;12.32;;;8.98;;
22644;SDS011;11489;50.834;6.752;2022-09-24T10:17:21;12.23;;;8.90;;
22644;SDS011;11489;50.834;6.752;2022-09-24T10:19:51;13.63;;;9.30;;
22644;SDS011;11489;50.834;6.752;2022-09-24T10:22:21;11.65;;;8.73;;
22644;SDS011;11489;50.834;6.752;2022-09-24T10:24:50;12.77;;;8.85;;
22644;SDS011;11489;50.834;6.752;2022-09-24T10:27:29;11.88;;;8.45;;
22644;SDS011;11489;50.834;6.752;2022-09-24T10:30:00;12.68;;;8.43;;
22644;SDS011;11489;50.834;6.752;2022-09-24T10:32:57;16.90;;;9.20;;
22644;SDS011;11489;50.834;6.752;2022-09-24T10:38:13;14.18;;;10.23;;
22644;SDS011;11489;50.834;6.752;2022-09-24T10:40:41;15.95;;;9.25;;
22644;SDS011;11489;50.834;6.752;2022-09-24T10:43:13;13.18;;;9.90;;
22644;SDS011;11489;50.834;6.752;2022-09-24T10:48:20;13.73;;;9.50;;
22644;SDS011;11489;50.834;6.752;2022-09-24T10:50:56;13.23;;;10.30;;
22644;SDS011;11489;50.834;6.752;2022-09-24T11:01:41;16.92;;;10.27;;
22644;SDS011;11489;50.834;6.752;2022-09-24T11:04:38;14.82;;;10.48;;
22644;SDS011;11489;50.834;6.752;2022-09-24T11:23:53;16.10;;;10.77;;
22644;SDS011;11489;50.834;6.752;2022-09-24T11:37:42;16.73;;;9.75;;
22644;SDS011;11489;50.834;6.752;2022-09-24T11:40:28;12.52;;;8.73;;
22644;SDS011;11489;50.834;6.752;2022-09-24T11:46:05;13.40;;;9.15;;
22644;SDS011;11489;50.834;6.752;2022-09-24T11:48:45;14.10;;;9.23;;
22644;SDS011;11489;50.834;6.752;2022-09-24T11:54:17;14.65;;;10.32;;
22644;SDS011;11489;50.834;6.752;2022-09-24T11:56:45;15.65;;;10.65;;
22644;SDS011;11489;50.834;6.752;2022-09-24T11:59:19;12.65;;;9.73;;
22644;SDS011;11489;50.834;6.752;2022-09-24T12:01:49;14.52;;;9.40;;
22644;SDS011;11489;50.834;6.752;2022-09-24T12:04:26;17.23;;;9.73;;
22644;SDS011;11489;50.834;6.752;2022-09-24T12:07:08;14.93;;;10.00;;
22644;SDS011;11489;50.834;6.752;2022-09-24T12:09:46;13.23;;;9.82;;
22644;SDS011;11489;50.834;6.752;2022-09-24T12:12:18;12.98;;;9.68;;
22644;SDS011;11489;50.834;6.752;2022-09-24T12:17:24;16.17;;;9.48;;
22644;SDS011;11489;50.834;6.752;2022-09-24T12:22:45;11.75;;;8.15;;
22644;SDS011;11489;50.834;6.752;2022-09-24T12:25:13;11.65;;;7.95;;
22644;SDS011;11489;50.834;6.752;2022-09-24T12:27:39;16.17;;;9.07;;
22644;SDS011;11489;50.834;6.752;2022-09-24T12:33:28;15.15;;;9.40;;
22644;SDS011;11489;50.834;6.752;2022-09-24T12:36:01;13.52;;;8.85;;
22644;SDS011;11489;50.834;6.752;2022-09-24T12:41:15;13.57;;;8.93;;
22644;SDS011;11489;50.834;6.752;2022-09-24T12:44:01;11.20;;;7.90;;
22644;SDS011;11489;50.834;6.752;2022-09-24T12:46:38;12.75;;;8.43;;
22644;SDS011;11489;50.834;6.752;2022-09-24T12:49:18;12.00;;;8.10;;
22644;SDS011;11489;50.834;6.752;2022-09-24T12:51:48;12.15;;;8.15;;
22644;SDS011;11489;50.834;6.752;2022-09-24T12:56:45;16.45;;;9.27;;
22644;SDS011;11489;50.834;6.752;2022-09-24T12:59:24;13.32;;;8.70;;
22644;SDS011;11489;50.834;6.752;2022-09-24T13:01:51;13.82;;;9.20;;
22644;SDS011;11489;50.834;6.752;2022-09-24T13:06:43;14.70;;;9.52;;
22644;SDS011;11489;50.834;6.752;2022-09-24T13:14:30;13.35;;;9.63;;
22644;SDS011;11489;50.834;6.752;2022-09-24T13:16:57;14.20;;;10.27;;
22644;SDS011;11489;50.834;6.752;2022-09-24T13:19:27;14.00;;;9.82;;
22644;SDS011;11489;50.834;6.752;2022-09-24T13:22:03;12.85;;;8.82;;
22644;SDS011;11489;50.834;6.752;2022-09-24T13:24:31;13.02;;;9.10;;
22644;SDS011;11489;50.834;6.752;2022-09-24T13:27:32;16.15;;;9.40;;
22644;SDS011;11489;50.834;6.752;2022-09-24T13:36:04;13.20;;;9.43;;
22644;SDS011;11489;50.834;6.752;2022-09-24T13:38:50;14.38;;;9.13;;
22644;SDS011;11489;50.834;6.752;2022-09-24T13:44:10;14.10;;;9.75;;
22644;SDS011;11489;50.834;6.752;2022-09-24T13:46:42;15.15;;;9.68;;
22644;SDS011;11489;50.834;6.752;2022-09-24T13:49:12;14.00;;;9.07;;
22644;SDS011;11489;50.834;6.752;2022-09-24T13:51:43;15.52;;;8.77;;
22644;SDS011;11489;50.834;6.752;2022-09-24T13:56:56;12.98;;;9.05;;
22644;SDS011;11489;50.834;6.752;2022-09-24T13:59:43;12.30;;;8.10;;
22644;SDS011;11489;50.834;6.752;2022-09-24T14:02:21;13.05;;;7.90;;
22644;SDS011;11489;50.834;6.752;2022-09-24T14:04:56;11.45;;;8.00;;
22644;SDS011;11489;50.834;6.752;2022-09-24T14:07:24;15.63;;;9.10;;
22644;SDS011;11489;50.834;6.752;2022-09-24T14:10:05;12.82;;;8.82;;
22644;SDS011;11489;50.834;6.752;2022-09-24T14:12:41;12.43;;;8.73;;
22644;SDS011;11489;50.834;6.752;2022-09-24T14:15:14;12.43;;;8.95;;
22644;SDS011;11489;50.834;6.752;2022-09-24T14:17:40;12.63;;;8.82;;
22644;SDS011;11489;50.834;6.752;2022-09-24T14:20:08;13.23;;;8.70;;
22644;SDS011;11489;50.834;6.752;2022-09-24T14:22:39;12.75;;;8.40;;
22644;SDS011;11489;50.834;6.752;2022-09-24T14:27:35;16.25;;;9.57;;
22644;SDS011;11489;50.834;6.752;2022-09-24T14:30:07;13.65;;;8.70;;
22644;SDS011;11489;50.834;6.752;2022-09-24T14:32:48;15.25;;;9.00;;
22644;SDS011;11489;50.834;6.752;2022-09-24T14:35:24;16.77;;;8.73;;
22644;SDS011;11489;50.834;6.752;2022-09-24T14:37:56;12.45;;;8.90;;
22644;SDS011;11489;50.834;6.752;2022-09-24T14:40:30;12.75;;;8.48;;
22644;SDS011;11489;50.834;6.752;2022-09-24T14:43:13;11.95;;;8.27;;
22644;SDS011;11489;50.834;6.752;2022-09-24T14:46:00;11.68;;;8.27;;
22644;SDS011;11489;50.834;6.752;2022-09-24T14:49:03;12.43;;;8.30;;
22644;SDS011;11489;50.834;6.752;2022-09-24T14:51:51;13.98;;;8.38;;
22644;SDS011;11489;50.834;6.752;2022-09-24T14:56:51;12.73;;;8.00;;
22644;SDS011;11489;50.834;6.752;2022-09-24T14:59:25;12.68;;;8.15;;
22644;SDS011;11489;50.834;6.752;2022-09-24T15:04:57;12.15;;;7.72;;
22644;SDS011;11489;50.834;6.752;2022-09-24T15:07:26;12.60;;;8.27;;
22644;SDS011;11489;50.834;6.752;2022-09-24T15:09:54;15.00;;;8.48;;
22644;SDS011;11489;50.834;6.752;2022-09-24T15:12:27;13.13;;;8.05;;
22644;SDS011;11489;50.834;6.752;2022-09-24T15:15:03;14.23;;;8.80;;
22644;SDS011;11489;50.834;6.752;2022-09-24T15:17:43;11.93;;;8.20;;
22644;SDS011;11489;50.834;6.752;2022-09-24T15:20:10;14.15;;;8.38;;
22644;SDS011;11489;50.834;6.752;2022-09-24T15:22:36;11.38;;;7.85;;
22644;SDS011;11489;50.834;6.752;2022-09-24T15:25:03;11.02;;;7.85;;
22644;SDS011;11489;50.834;6.752;2022-09-24T15:27:30;12.82;;;7.60;;
22644;SDS011;11489;50.834;6.752;2022-09-24T15:30:04;13.40;;;7.00;;
22644;SDS011;11489;50.834;6.752;2022-09-24T15:32:32;9.60;;;7.03;;
22644;SDS011;11489;50.834;6.752;2022-09-24T15:35:02;9.90;;;7.13;;
22644;SDS011;11489;50.834;6.752;2022-09-24T15:37:33;10.10;;;6.97;;
22644;SDS011;11489;50.834;6.752;2022-09-24T15:40:22;10.75;;;6.63;;
22644;SDS011;11489;50.834;6.752;2022-09-24T15:42:49;9.27;;;6.65;;
22644;SDS011;11489;50.834;6.752;2022-09-24T15:45:22;11.30;;;7.72;;
22644;SDS011;11489;50.834;6.752;2022-09-24T15:47:49;10.88;;;7.68;;
22644;SDS011;11489;50.834;6.752;2022-09-24T15:50:16;10.52;;;7.50;;
22644;SDS011;11489;50.834;6.752;2022-09-24T15:52:50;13.18;;;7.72;;
22644;SDS011;11489;50.834;6.752;2022-09-24T15:55:18;12.32;;;7.85;;
22644;SDS011;11489;50.834;6.752;2022-09-24T15:57:46;11.93;;;8.30;;
22644;SDS011;11489;50.834;6.752;2022-09-24T16:00:16;13.10;;;8.15;;
22644;SDS011;11489;50.834;6.752;2022-09-24T16:02:44;11.10;;;8.02;;
22644;SDS011;11489;50.834;6.752;2022-09-24T16:05:14;12.77;;;8.05;;
22644;SDS011;11489;50.834;6.752;2022-09-24T16:07:40;10.38;;;8.23;;
22644;SDS011;11489;50.834;6.752;2022-09-24T16:10:06;12.25;;;7.63;;
22644;SDS011;11489;50.834;6.752;2022-09-24T16:12:32;10.23;;;7.25;;
22644;SDS011;11489;50.834;6.752;2022-09-24T16:14:58;10.90;;;7.03;;
22644;SDS011;11489;50.834;6.752;2022-09-24T16:17:25;10.27;;;6.93;;
22644;SDS011;11489;50.834;6.752;2022-09-24T16:19:51;9.98;;;6.70;;
22644;SDS011;11489;50.834;6.752;2022-09-24T16:22:17;9.50;;;6.70;;
22644;SDS011;11489;50.834;6.752;2022-09-24T16:24:43;15.07;;;7.63;;
22644;SDS011;11489;50.834;6.752;2022-09-24T16:27:08;11.60;;;7.70;;
22644;SDS011;11489;50.834;6.752;2022-09-24T16:29:34;11.13;;;7.60;;
22644;SDS011;11489;50.834;6.752;2022-09-24T16:32:00;14.35;;;8.27;;
22644;SDS011;11489;50.834;6.752;2022-09-24T16:34:26;12.45;;;7.97;;
22644;SDS011;11489;50.834;6.752;2022-09-24T16:36:52;12.45;;;8.15;;
22644;SDS011;11489;50.834;6.752;2022-09-24T16:39:18;12.02;;;8.38;;
22644;SDS011;11489;50.834;6.752;2022-09-24T16:41:48;12.63;;;8.25;;
22644;SDS011;11489;50.834;6.752;2022-09-24T16:44:14;14.23;;;8.82;;
22644;SDS011;11489;50.834;6.752;2022-09-24T16:46:40;14.63;;;9.02;;
22644;SDS011;11489;50.834;6.752;2022-09-24T16:49:07;15.85;;;10.18;;
22644;SDS011;11489;50.834;6.752;2022-09-24T16:51:32;20.05;;;10.88;;
22644;SDS011;11489;50.834;6.752;2022-09-24T16:53:58;17.00;;;10.65;;
22644;SDS011;11489;50.834;6.752;2022-09-24T16:56:24;19.38;;;12.07;;
22644;SDS011;11489;50.834;6.752;2022-09-24T16:58:50;17.52;;;10.70;;
22644;SDS011;11489;50.834;6.752;2022-09-24T17:01:17;18.90;;;11.70;;
22644;SDS011;11489;50.834;6.752;2022-09-24T17:03:51;17.33;;;11.50;;
22644;SDS011;11489;50.834;6.752;2022-09-24T17:06:19;21.33;;;12.30;;
22644;SDS011;11489;50.834;6.752;2022-09-24T17:08:46;20.17;;;12.10;;
22644;SDS011;11489;50.834;6.752;2022-09-24T17:11:31;20.13;;;12.05;;
22644;SDS011;11489;50.834;6.752;2022-09-24T17:13:59;16.35;;;11.15;;
22644;SDS011;11489;50.834;6.752;2022-09-24T17:16:25;17.58;;;11.00;;
22644;SDS011;11489;50.834;6.752;2022-09-24T17:18:51;18.60;;;11.13;;
22644;SDS011;11489;50.834;6.752;2022-09-24T17:21:21;15.57;;;10.90;;
22644;SDS011;11489;50.834;6.752;2022-09-24T17:23:47;20.60;;;11.60;;
22644;SDS011;11489;50.834;6.752;2022-09-24T17:26:14;19.45;;;10.68;;
22644;SDS011;11489;50.834;6.752;2022-09-24T17:28:41;18.73;;;10.75;;
22644;SDS011;11489;50.834;6.752;2022-09-24T17:31:11;18.02;;;12.20;;